createdAt,value
2023-08-14T00:06:13.431Z,46.09
2023-08-14T00:13:19.815Z,45.92
2023-08-14T00:20:21.416Z,46.42
2023-08-14T00:27:23.763Z,46.40
2023-08-14T00:34:25.388Z,47.01
2023-08-14T00:41:27.126Z,47.18
2023-08-14T00:48:28.901Z,47.78
2023-08-14T00:55:30.548Z,48.40
2023-08-14T01:02:32.825Z,48.19
2023-08-14T01:09:34.455Z,48.94
2023-08-14T01:16:38.521Z,49.44
2023-08-14T01:23:53.853Z,49.63
2023-08-14T01:30:55.645Z,50.21
2023-08-14T01:38:04.126Z,51.02
2023-08-14T01:45:13.573Z,51.56
2023-08-14T01:52:15.109Z,51.89
2023-08-14T01:59:16.847Z,53.80
2023-08-14T02:06:18.474Z,53.61
2023-08-14T02:13:20.155Z,54.08
2023-08-14T02:20:21.767Z,54.14
2023-08-14T02:27:23.419Z,54.24
2023-08-14T02:34:43.882Z,54.12
2023-08-14T02:41:46.147Z,55.08
2023-08-14T02:48:48.097Z,55.39
2023-08-14T02:55:53.677Z,55.80
2023-08-14T03:02:55.342Z,56.14
2023-08-14T03:09:57.604Z,56.25
2023-08-14T03:16:59.294Z,56.89
2023-08-14T03:24:04.713Z,56.58
2023-08-14T03:31:07.865Z,57.20
2023-08-14T03:38:09.673Z,57.27
2023-08-14T03:45:11.601Z,57.27
2023-08-14T03:52:13.378Z,57.54
2023-08-14T03:59:15.593Z,57.71
2023-08-14T04:06:19.469Z,57.69
2023-08-14T04:13:21.252Z,58.02
2023-08-14T04:20:24.044Z,58.27
2023-08-14T04:27:25.906Z,58.52
2023-08-14T04:34:27.611Z,58.80
2023-08-14T04:41:29.988Z,59.09
2023-08-14T04:48:31.827Z,58.99
2023-08-14T04:55:34.372Z,58.85
2023-08-14T05:02:36.215Z,58.68
2023-08-14T05:09:38.547Z,59.37
2023-08-14T05:16:40.613Z,59.08
2023-08-14T05:23:44.167Z,58.82
2023-08-14T05:30:45.935Z,58.12
2023-08-14T05:37:47.545Z,58.07
2023-08-14T05:44:49.164Z,57.66
2023-08-14T05:51:50.761Z,57.98
2023-08-14T05:58:52.459Z,57.48
2023-08-14T06:05:54.231Z,57.44
2023-08-14T06:12:55.906Z,57.03
2023-08-14T06:19:57.581Z,57.21
2023-08-14T06:26:59.257Z,56.77
2023-08-14T06:34:00.872Z,56.55
2023-08-14T06:41:03.052Z,56.73
2023-08-14T06:48:05.122Z,55.83
2023-08-14T06:55:07.067Z,55.75
2023-08-14T07:02:08.728Z,55.76
2023-08-14T07:09:10.761Z,55.59
2023-08-14T07:16:12.420Z,54.89
2023-08-14T07:23:15.945Z,54.45
2023-08-14T07:30:17.571Z,51.80
2023-08-14T07:37:19.208Z,51.55
2023-08-14T07:44:20.839Z,50.73
2023-08-14T07:51:22.484Z,49.43
2023-08-14T07:58:24.105Z,46.59
2023-08-14T08:05:25.756Z,45.19
2023-08-14T08:12:27.428Z,44.28
2023-08-14T08:19:29.075Z,41.83
2023-08-14T08:26:30.844Z,41.78
2023-08-14T08:33:32.576Z,40.62
2023-08-14T08:40:34.237Z,38.47
2023-08-14T08:47:38.344Z,36.32
2023-08-14T08:54:40.090Z,38.03
2023-08-14T09:01:42.082Z,36.40
2023-08-14T09:08:43.784Z,35.13
2023-08-14T09:15:45.925Z,35.06
2023-08-14T09:22:48.083Z,34.77
2023-08-14T09:29:52.227Z,34.37
2023-08-14T09:36:53.836Z,35.24
2023-08-14T09:43:55.472Z,34.32
2023-08-14T09:50:57.164Z,33.88
2023-08-14T09:57:59.054Z,31.47
2023-08-14T10:05:01.406Z,31.66
2023-08-14T10:12:05.510Z,31.30
2023-08-14T10:19:10.475Z,30.01
2023-08-14T10:26:12.152Z,28.37
2023-08-14T10:33:14.024Z,26.56
2023-08-14T10:40:25.710Z,25.85
2023-08-14T10:47:27.334Z,25.37
2023-08-14T10:54:28.969Z,24.68
2023-08-14T11:01:36.191Z,23.18
2023-08-14T11:08:37.807Z,23.27
2023-08-14T11:15:40.165Z,22.77
2023-08-14T11:22:45.584Z,22.71
2023-08-14T11:29:53.430Z,22.70
2023-08-14T11:44:06.860Z,21.62
2023-08-14T11:51:08.612Z,22.31
2023-08-14T11:58:10.284Z,22.07
2023-08-14T12:05:11.893Z,22.61
2023-08-14T12:12:13.620Z,22.93
2023-08-14T12:19:15.220Z,23.20
2023-08-14T12:26:17.012Z,22.15
2023-08-14T12:33:18.661Z,21.99
2023-08-14T12:40:20.310Z,22.20
2023-08-14T12:47:22.297Z,21.46
2023-08-14T12:54:24.414Z,22.58
2023-08-14T13:01:26.174Z,22.94
2023-08-14T13:08:27.861Z,22.90
2023-08-14T13:15:29.450Z,21.97
2023-08-14T13:22:31.071Z,22.04
2023-08-14T13:29:32.884Z,21.84
2023-08-14T13:36:34.496Z,21.14
2023-08-14T13:43:36.155Z,21.72
2023-08-14T13:50:38.563Z,22.84
2023-08-14T13:57:41.133Z,23.74
2023-08-14T14:04:43.101Z,24.59
2023-08-14T14:11:44.734Z,25.37
2023-08-14T14:18:46.320Z,25.49
2023-08-14T14:25:48.027Z,25.91
2023-08-14T14:32:49.726Z,25.84
2023-08-14T14:39:51.374Z,26.19
2023-08-14T14:46:53.010Z,27.10
2023-08-14T14:53:54.658Z,27.64
2023-08-14T15:00:56.266Z,28.06
2023-08-14T15:07:58.542Z,28.32
2023-08-14T15:15:00.241Z,28.68
2023-08-14T15:22:02.063Z,29.30
2023-08-14T15:29:03.753Z,29.31
2023-08-14T15:36:05.722Z,29.78
2023-08-14T15:43:07.356Z,29.83
2023-08-14T15:50:09.490Z,30.02
2023-08-14T15:57:11.120Z,30.75
2023-08-14T16:04:12.804Z,31.15
2023-08-14T16:11:14.497Z,31.37
2023-08-14T16:18:16.154Z,32.40
2023-08-14T16:25:17.936Z,32.51
2023-08-14T16:32:19.552Z,32.66
2023-08-14T16:39:21.146Z,33.02
2023-08-14T16:46:23.499Z,33.35
2023-08-14T16:53:25.247Z,33.27
2023-08-14T17:00:26.980Z,33.71
2023-08-14T17:07:28.725Z,33.68
2023-08-14T17:14:30.440Z,34.49
2023-08-14T17:21:32.077Z,35.72
2023-08-14T17:28:33.708Z,37.15
2023-08-14T17:35:35.362Z,39.45
2023-08-14T17:42:37.057Z,41.18
2023-08-14T17:49:38.676Z,42.94
2023-08-14T17:56:40.335Z,43.38
2023-08-14T18:03:42.129Z,44.09
2023-08-14T18:10:43.794Z,46.48
2023-08-14T18:17:45.487Z,48.26
2023-08-14T18:24:47.374Z,50.11
2023-08-14T18:31:49.081Z,49.86
2023-08-14T18:38:50.794Z,49.76
2023-08-14T18:45:54.177Z,49.32
2023-08-14T18:52:55.885Z,49.89
2023-08-14T18:59:57.550Z,49.43
2023-08-14T19:06:59.210Z,49.29
2023-08-14T19:14:00.824Z,50.18
2023-08-14T19:21:03.298Z,51.40
2023-08-14T19:28:19.489Z,52.89
2023-08-14T19:35:23.811Z,54.09
2023-08-14T19:42:25.509Z,55.14
2023-08-14T19:49:27.151Z,56.38
2023-08-14T19:56:28.961Z,56.87
2023-08-14T20:03:30.956Z,56.66
2023-08-14T20:10:32.721Z,56.50
2023-08-14T20:17:34.379Z,55.52
2023-08-14T20:24:36.015Z,55.16
2023-08-14T20:31:37.614Z,56.19
2023-08-14T20:38:39.292Z,56.61
2023-08-14T20:45:40.965Z,58.16
2023-08-14T20:52:42.584Z,58.57
2023-08-14T20:59:45.650Z,58.82
2023-08-14T21:06:47.227Z,57.64
2023-08-14T21:13:48.811Z,58.06
2023-08-14T21:20:50.448Z,57.75
2023-08-14T21:27:52.092Z,56.96
2023-08-14T21:34:53.892Z,57.17
2023-08-14T21:41:55.537Z,57.27
2023-08-14T21:48:57.296Z,57.84
2023-08-14T21:55:58.917Z,58.50
2023-08-14T22:03:00.749Z,58.39
2023-08-14T22:10:03.644Z,59.67
2023-08-14T22:17:05.362Z,59.33
2023-08-14T22:24:07.354Z,59.70
2023-08-14T22:31:14.594Z,60.16
2023-08-14T22:38:16.237Z,61.00
2023-08-14T22:45:17.913Z,60.99
2023-08-14T22:52:19.597Z,60.93
2023-08-14T22:59:21.340Z,62.05
2023-08-14T23:06:23.031Z,63.54
2023-08-14T23:13:24.663Z,63.81
2023-08-14T23:20:26.385Z,63.94
2023-08-14T23:27:28.149Z,64.93
2023-08-14T23:34:30.763Z,89.75
2023-08-14T23:41:33.457Z,100.00
2023-08-14T23:48:35.074Z,100.00
2023-08-14T23:55:36.690Z,100.00
